sensor_id;sensor_type;location;lat;lon;timestamp;P1;durP1;ratioP1;P2;durP2;ratioP2
75837;SDS011;64480;52.040;113.502;2023-05-18T00:02:13;21.90;;;8.13;;
75837;SDS011;64480;52.040;113.502;2023-05-18T00:05:20;20.80;;;8.30;;
75837;SDS011;64480;52.040;113.502;2023-05-18T00:08:24;17.65;;;8.85;;
75837;SDS011;64480;52.040;113.502;2023-05-18T00:11:28;28.65;;;8.65;;
75837;SDS011;64480;52.040;113.502;2023-05-18T00:14:32;18.85;;;9.27;;
75837;SDS011;64480;52.040;113.502;2023-05-18T00:17:35;31.10;;;11.50;;
75837;SDS011;64480;52.040;113.502;2023-05-18T00:20:39;31.30;;;9.73;;
75837;SDS011;64480;52.040;113.502;2023-05-18T00:23:45;29.58;;;9.55;;
75837;SDS011;64480;52.040;113.502;2023-05-18T00:26:51;26.05;;;10.20;;
75837;SDS011;64480;52.040;113.502;2023-05-18T00:29:55;20.25;;;10.13;;
75837;SDS011;64480;52.040;113.502;2023-05-18T00:32:58;23.05;;;10.02;;
75837;SDS011;64480;52.040;113.502;2023-05-18T00:36:03;32.17;;;9.95;;
75837;SDS011;64480;52.040;113.502;2023-05-18T00:39:10;66.10;;;14.90;;
75837;SDS011;64480;52.040;113.502;2023-05-18T00:42:14;35.35;;;13.35;;
75837;SDS011;64480;52.040;113.502;2023-05-18T00:45:18;27.73;;;13.02;;
75837;SDS011;64480;52.040;113.502;2023-05-18T00:48:35;24.20;;;10.25;;
75837;SDS011;64480;52.040;113.502;2023-05-18T00:51:39;23.73;;;10.27;;
75837;SDS011;64480;52.040;113.502;2023-05-18T00:54:43;19.63;;;9.05;;
75837;SDS011;64480;52.040;113.502;2023-05-18T00:57:48;23.88;;;9.68;;
75837;SDS011;64480;52.040;113.502;2023-05-18T01:00:52;23.52;;;9.82;;
75837;SDS011;64480;52.040;113.502;2023-05-18T01:03:57;20.98;;;9.15;;
75837;SDS011;64480;52.040;113.502;2023-05-18T01:07:05;23.70;;;12.40;;
75837;SDS011;64480;52.040;113.502;2023-05-18T01:10:10;31.67;;;13.77;;
75837;SDS011;64480;52.040;113.502;2023-05-18T01:13:18;30.75;;;10.82;;
75837;SDS011;64480;52.040;113.502;2023-05-18T01:16:27;20.85;;;9.30;;
75837;SDS011;64480;52.040;113.502;2023-05-18T01:26:43;25.70;;;9.00;;
75837;SDS011;64480;52.040;113.502;2023-05-18T01:30:05;28.23;;;10.75;;
75837;SDS011;64480;52.040;113.502;2023-05-18T01:33:10;30.92;;;10.05;;
75837;SDS011;64480;52.040;113.502;2023-05-18T01:36:15;19.65;;;9.25;;
75837;SDS011;64480;52.040;113.502;2023-05-18T01:39:21;22.83;;;9.43;;
75837;SDS011;64480;52.040;113.502;2023-05-18T01:42:27;23.05;;;10.02;;
75837;SDS011;64480;52.040;113.502;2023-05-18T01:45:32;21.40;;;8.35;;
75837;SDS011;64480;52.040;113.502;2023-05-18T01:48:38;20.35;;;7.85;;
75837;SDS011;64480;52.040;113.502;2023-05-18T01:51:46;17.58;;;8.18;;
75837;SDS011;64480;52.040;113.502;2023-05-18T01:54:53;21.27;;;7.15;;
75837;SDS011;64480;52.040;113.502;2023-05-18T01:58:00;11.80;;;6.47;;
75837;SDS011;64480;52.040;113.502;2023-05-18T02:01:06;19.17;;;8.35;;
75837;SDS011;64480;52.040;113.502;2023-05-18T02:04:10;22.33;;;8.63;;
75837;SDS011;64480;52.040;113.502;2023-05-18T02:07:14;13.63;;;6.03;;
75837;SDS011;64480;52.040;113.502;2023-05-18T02:10:17;20.83;;;6.05;;
75837;SDS011;64480;52.040;113.502;2023-05-18T02:16:54;14.55;;;6.10;;
75837;SDS011;64480;52.040;113.502;2023-05-18T02:20:04;9.70;;;5.72;;
75837;SDS011;64480;52.040;113.502;2023-05-18T02:23:11;7.38;;;3.17;;
75837;SDS011;64480;52.040;113.502;2023-05-18T02:26:15;8.30;;;2.92;;
75837;SDS011;64480;52.040;113.502;2023-05-18T02:29:23;13.00;;;3.65;;
75837;SDS011;64480;52.040;113.502;2023-05-18T02:32:29;10.10;;;4.13;;
75837;SDS011;64480;52.040;113.502;2023-05-18T02:35:40;16.48;;;8.38;;
75837;SDS011;64480;52.040;113.502;2023-05-18T02:38:43;16.05;;;9.52;;
75837;SDS011;64480;52.040;113.502;2023-05-18T02:41:47;10.20;;;7.32;;
75837;SDS011;64480;52.040;113.502;2023-05-18T02:44:51;9.52;;;4.65;;
75837;SDS011;64480;52.040;113.502;2023-05-18T02:47:54;4.22;;;2.63;;
75837;SDS011;64480;52.040;113.502;2023-05-18T02:50:58;9.90;;;5.20;;
75837;SDS011;64480;52.040;113.502;2023-05-18T02:54:02;4.75;;;2.45;;
75837;SDS011;64480;52.040;113.502;2023-05-18T02:57:08;10.10;;;3.72;;
75837;SDS011;64480;52.040;113.502;2023-05-18T03:00:18;5.63;;;2.03;;
75837;SDS011;64480;52.040;113.502;2023-05-18T03:03:28;4.43;;;2.70;;
75837;SDS011;64480;52.040;113.502;2023-05-18T03:06:35;8.68;;;2.63;;
75837;SDS011;64480;52.040;113.502;2023-05-18T03:09:40;10.30;;;3.92;;
75837;SDS011;64480;52.040;113.502;2023-05-18T03:12:47;6.50;;;3.03;;
75837;SDS011;64480;52.040;113.502;2023-05-18T03:15:57;5.22;;;2.35;;
75837;SDS011;64480;52.040;113.502;2023-05-18T03:19:06;2.72;;;1.75;;
75837;SDS011;64480;52.040;113.502;2023-05-18T03:22:14;17.05;;;9.95;;
75837;SDS011;64480;52.040;113.502;2023-05-18T03:25:18;12.50;;;7.13;;
75837;SDS011;64480;52.040;113.502;2023-05-18T03:28:22;17.17;;;12.10;;
75837;SDS011;64480;52.040;113.502;2023-05-18T03:31:26;17.65;;;13.25;;
75837;SDS011;64480;52.040;113.502;2023-05-18T03:34:32;14.40;;;8.95;;
75837;SDS011;64480;52.040;113.502;2023-05-18T03:37:37;14.85;;;9.07;;
75837;SDS011;64480;52.040;113.502;2023-05-18T03:40:41;12.20;;;7.25;;
75837;SDS011;64480;52.040;113.502;2023-05-18T03:43:45;10.27;;;6.15;;
75837;SDS011;64480;52.040;113.502;2023-05-18T03:46:49;8.15;;;2.58;;
75837;SDS011;64480;52.040;113.502;2023-05-18T03:49:59;5.20;;;3.08;;
75837;SDS011;64480;52.040;113.502;2023-05-18T03:53:03;2.90;;;1.90;;
75837;SDS011;64480;52.040;113.502;2023-05-18T03:56:07;3.70;;;1.83;;
75837;SDS011;64480;52.040;113.502;2023-05-18T03:59:11;13.88;;;5.40;;
75837;SDS011;64480;52.040;113.502;2023-05-18T04:02:15;20.95;;;13.07;;
75837;SDS011;64480;52.040;113.502;2023-05-18T04:05:32;25.30;;;15.45;;
75837;SDS011;64480;52.040;113.502;2023-05-18T04:08:35;20.42;;;12.90;;
75837;SDS011;64480;52.040;113.502;2023-05-18T04:11:39;19.92;;;12.05;;
75837;SDS011;64480;52.040;113.502;2023-05-18T04:14:43;21.98;;;16.25;;
75837;SDS011;64480;52.040;113.502;2023-05-18T04:17:51;20.10;;;12.15;;
75837;SDS011;64480;52.040;113.502;2023-05-18T04:20:55;13.60;;;5.40;;
75837;SDS011;64480;52.040;113.502;2023-05-18T04:23:59;5.00;;;3.08;;
75837;SDS011;64480;52.040;113.502;2023-05-18T04:27:10;8.60;;;3.80;;
75837;SDS011;64480;52.040;113.502;2023-05-18T04:30:13;7.82;;;4.60;;
75837;SDS011;64480;52.040;113.502;2023-05-18T04:33:20;7.75;;;4.95;;
75837;SDS011;64480;52.040;113.502;2023-05-18T04:36:23;5.55;;;2.95;;
75837;SDS011;64480;52.040;113.502;2023-05-18T04:39:28;6.63;;;4.10;;
75837;SDS011;64480;52.040;113.502;2023-05-18T04:42:32;8.68;;;5.18;;
75837;SDS011;64480;52.040;113.502;2023-05-18T04:46:00;21.75;;;14.30;;
75837;SDS011;64480;52.040;113.502;2023-05-18T04:49:06;18.23;;;12.27;;
75837;SDS011;64480;52.040;113.502;2023-05-18T04:52:26;34.65;;;21.63;;
75837;SDS011;64480;52.040;113.502;2023-05-18T04:55:35;28.90;;;16.38;;
75837;SDS011;64480;52.040;113.502;2023-05-18T04:58:42;29.33;;;17.50;;
75837;SDS011;64480;52.040;113.502;2023-05-18T05:05:00;8.05;;;4.93;;
75837;SDS011;64480;52.040;113.502;2023-05-18T05:08:03;10.93;;;6.65;;
75837;SDS011;64480;52.040;113.502;2023-05-18T05:11:09;25.17;;;8.15;;
75837;SDS011;64480;52.040;113.502;2023-05-18T05:14:16;10.52;;;5.22;;
75837;SDS011;64480;52.040;113.502;2023-05-18T05:17:21;14.27;;;5.53;;
75837;SDS011;64480;52.040;113.502;2023-05-18T05:20:28;13.93;;;8.38;;
75837;SDS011;64480;52.040;113.502;2023-05-18T05:23:32;29.63;;;17.95;;
75837;SDS011;64480;52.040;113.502;2023-05-18T05:26:36;19.70;;;11.40;;
75837;SDS011;64480;52.040;113.502;2023-05-18T05:29:42;21.85;;;8.55;;
75837;SDS011;64480;52.040;113.502;2023-05-18T05:32:51;14.45;;;8.20;;
75837;SDS011;64480;52.040;113.502;2023-05-18T05:35:58;16.50;;;8.60;;
75837;SDS011;64480;52.040;113.502;2023-05-18T05:39:02;8.82;;;3.85;;
75837;SDS011;64480;52.040;113.502;2023-05-18T05:42:09;5.22;;;2.42;;
75837;SDS011;64480;52.040;113.502;2023-05-18T05:45:14;7.57;;;2.55;;
75837;SDS011;64480;52.040;113.502;2023-05-18T05:48:30;10.45;;;2.58;;
75837;SDS011;64480;52.040;113.502;2023-05-18T05:51:36;6.47;;;2.85;;
75837;SDS011;64480;52.040;113.502;2023-05-18T05:54:40;4.97;;;2.50;;
75837;SDS011;64480;52.040;113.502;2023-05-18T05:57:44;16.80;;;3.65;;
75837;SDS011;64480;52.040;113.502;2023-05-18T06:00:49;6.15;;;2.22;;
75837;SDS011;64480;52.040;113.502;2023-05-18T06:03:54;6.13;;;2.92;;
75837;SDS011;64480;52.040;113.502;2023-05-18T06:06:57;7.32;;;4.78;;
75837;SDS011;64480;52.040;113.502;2023-05-18T06:10:11;6.80;;;4.38;;
75837;SDS011;64480;52.040;113.502;2023-05-18T06:13:18;4.97;;;2.25;;
75837;SDS011;64480;52.040;113.502;2023-05-18T06:16:28;6.70;;;4.80;;
75837;SDS011;64480;52.040;113.502;2023-05-18T06:19:33;7.80;;;2.90;;
75837;SDS011;64480;52.040;113.502;2023-05-18T06:22:36;9.73;;;2.47;;
75837;SDS011;64480;52.040;113.502;2023-05-18T06:29:57;4.82;;;2.30;;
75837;SDS011;64480;52.040;113.502;2023-05-18T06:33:10;3.35;;;2.00;;
75837;SDS011;64480;52.040;113.502;2023-05-18T06:36:28;5.45;;;2.42;;
75837;SDS011;64480;52.040;113.502;2023-05-18T06:39:33;5.20;;;2.17;;
75837;SDS011;64480;52.040;113.502;2023-05-18T06:42:37;5.07;;;2.35;;
75837;SDS011;64480;52.040;113.502;2023-05-18T06:46:22;6.43;;;1.90;;
75837;SDS011;64480;52.040;113.502;2023-05-18T06:49:34;3.05;;;1.90;;
75837;SDS011;64480;52.040;113.502;2023-05-18T06:52:46;4.60;;;2.00;;
75837;SDS011;64480;52.040;113.502;2023-05-18T06:55:49;4.45;;;1.60;;
75837;SDS011;64480;52.040;113.502;2023-05-18T06:58:54;4.85;;;2.28;;
75837;SDS011;64480;52.040;113.502;2023-05-18T07:02:01;9.18;;;2.17;;
75837;SDS011;64480;52.040;113.502;2023-05-18T07:05:06;4.68;;;2.80;;
75837;SDS011;64480;52.040;113.502;2023-05-18T07:08:10;4.20;;;1.75;;
75837;SDS011;64480;52.040;113.502;2023-05-18T07:11:14;3.72;;;1.60;;
75837;SDS011;64480;52.040;113.502;2023-05-18T07:14:18;9.77;;;4.82;;
75837;SDS011;64480;52.040;113.502;2023-05-18T07:17:21;9.00;;;1.88;;
75837;SDS011;64480;52.040;113.502;2023-05-18T07:20:25;4.82;;;2.08;;
75837;SDS011;64480;52.040;113.502;2023-05-18T07:23:29;5.45;;;2.05;;
75837;SDS011;64480;52.040;113.502;2023-05-18T07:26:33;4.60;;;2.05;;
75837;SDS011;64480;52.040;113.502;2023-05-18T07:29:37;8.50;;;1.60;;
75837;SDS011;64480;52.040;113.502;2023-05-18T07:32:40;4.00;;;2.20;;
75837;SDS011;64480;52.040;113.502;2023-05-18T07:35:46;6.03;;;2.10;;
75837;SDS011;64480;52.040;113.502;2023-05-18T07:38:50;4.32;;;1.90;;
75837;SDS011;64480;52.040;113.502;2023-05-18T07:41:58;3.85;;;1.95;;
75837;SDS011;64480;52.040;113.502;2023-05-18T07:45:02;4.00;;;1.95;;
75837;SDS011;64480;52.040;113.502;2023-05-18T07:48:06;4.90;;;2.15;;
75837;SDS011;64480;52.040;113.502;2023-05-18T07:51:14;6.85;;;1.85;;
75837;SDS011;64480;52.040;113.502;2023-05-18T07:54:18;5.30;;;2.03;;
75837;SDS011;64480;52.040;113.502;2023-05-18T07:57:35;6.85;;;2.85;;
75837;SDS011;64480;52.040;113.502;2023-05-18T08:00:39;11.90;;;4.00;;
75837;SDS011;64480;52.040;113.502;2023-05-18T08:03:43;5.90;;;1.88;;
75837;SDS011;64480;52.040;113.502;2023-05-18T08:07:03;10.73;;;2.53;;
75837;SDS011;64480;52.040;113.502;2023-05-18T08:10:07;8.35;;;2.30;;
75837;SDS011;64480;52.040;113.502;2023-05-18T08:13:12;6.55;;;2.25;;
75837;SDS011;64480;52.040;113.502;2023-05-18T08:16:16;3.30;;;2.03;;
75837;SDS011;64480;52.040;113.502;2023-05-18T08:19:30;7.78;;;2.75;;
75837;SDS011;64480;52.040;113.502;2023-05-18T08:22:34;5.80;;;2.00;;
75837;SDS011;64480;52.040;113.502;2023-05-18T08:25:44;6.72;;;2.30;;
75837;SDS011;64480;52.040;113.502;2023-05-18T08:28:48;7.10;;;2.28;;
75837;SDS011;64480;52.040;113.502;2023-05-18T08:31:52;9.50;;;3.70;;
75837;SDS011;64480;52.040;113.502;2023-05-18T08:34:56;5.50;;;2.15;;
75837;SDS011;64480;52.040;113.502;2023-05-18T08:38:13;5.63;;;1.60;;
75837;SDS011;64480;52.040;113.502;2023-05-18T08:41:18;5.30;;;2.00;;
75837;SDS011;64480;52.040;113.502;2023-05-18T08:44:25;10.93;;;3.05;;
75837;SDS011;64480;52.040;113.502;2023-05-18T08:47:48;7.45;;;1.60;;
75837;SDS011;64480;52.040;113.502;2023-05-18T08:51:00;5.78;;;2.05;;
75837;SDS011;64480;52.040;113.502;2023-05-18T08:54:08;4.30;;;1.80;;
75837;SDS011;64480;52.040;113.502;2023-05-18T08:57:21;14.18;;;2.30;;
75837;SDS011;64480;52.040;113.502;2023-05-18T09:00:25;7.82;;;2.33;;
75837;SDS011;64480;52.040;113.502;2023-05-18T09:03:30;9.63;;;2.90;;
75837;SDS011;64480;52.040;113.502;2023-05-18T09:06:35;5.57;;;2.20;;
75837;SDS011;64480;52.040;113.502;2023-05-18T09:09:39;4.57;;;1.92;;
75837;SDS011;64480;52.040;113.502;2023-05-18T09:12:43;4.82;;;1.95;;
75837;SDS011;64480;52.040;113.502;2023-05-18T09:15:48;6.97;;;2.00;;
75837;SDS011;64480;52.040;113.502;2023-05-18T09:18:53;4.03;;;2.00;;
75837;SDS011;64480;52.040;113.502;2023-05-18T09:21:57;2.90;;;1.70;;
75837;SDS011;64480;52.040;113.502;2023-05-18T09:25:01;5.28;;;2.20;;
75837;SDS011;64480;52.040;113.502;2023-05-18T09:28:05;2.20;;;1.60;;
75837;SDS011;64480;52.040;113.502;2023-05-18T09:31:09;3.70;;;1.95;;
75837;SDS011;64480;52.040;113.502;2023-05-18T09:34:19;6.25;;;2.25;;
75837;SDS011;64480;52.040;113.502;2023-05-18T09:37:23;10.40;;;2.75;;
75837;SDS011;64480;52.040;113.502;2023-05-18T09:40:27;10.13;;;3.45;;
75837;SDS011;64480;52.040;113.502;2023-05-18T09:43:32;6.03;;;1.45;;
75837;SDS011;64480;52.040;113.502;2023-05-18T09:46:38;8.95;;;2.10;;
75837;SDS011;64480;52.040;113.502;2023-05-18T09:50:05;6.68;;;2.15;;
75837;SDS011;64480;52.040;113.502;2023-05-18T09:53:09;8.52;;;3.45;;
75837;SDS011;64480;52.040;113.502;2023-05-18T09:56:16;4.95;;;2.28;;
75837;SDS011;64480;52.040;113.502;2023-05-18T09:59:19;3.30;;;1.85;;
75837;SDS011;64480;52.040;113.502;2023-05-18T10:02:23;9.25;;;3.20;;
75837;SDS011;64480;52.040;113.502;2023-05-18T10:13:54;6.68;;;3.60;;
75837;SDS011;64480;52.040;113.502;2023-05-18T10:17:19;8.90;;;5.95;;
75837;SDS011;64480;52.040;113.502;2023-05-18T10:21:28;3.63;;;1.88;;
75837;SDS011;64480;52.040;113.502;2023-05-18T10:24:50;9.90;;;3.53;;
75837;SDS011;64480;52.040;113.502;2023-05-18T10:28:05;7.25;;;3.10;;
75837;SDS011;64480;52.040;113.502;2023-05-18T10:31:28;9.90;;;3.90;;
75837;SDS011;64480;52.040;113.502;2023-05-18T10:34:47;7.18;;;2.88;;
75837;SDS011;64480;52.040;113.502;2023-05-18T10:37:56;3.88;;;1.80;;
75837;SDS011;64480;52.040;113.502;2023-05-18T10:41:01;6.38;;;2.20;;
75837;SDS011;64480;52.040;113.502;2023-05-18T10:44:11;8.82;;;2.28;;
75837;SDS011;64480;52.040;113.502;2023-05-18T10:47:19;8.13;;;2.53;;
75837;SDS011;64480;52.040;113.502;2023-05-18T10:50:36;5.18;;;2.47;;
75837;SDS011;64480;52.040;113.502;2023-05-18T10:53:42;6.32;;;2.20;;
75837;SDS011;64480;52.040;113.502;2023-05-18T10:56:52;8.88;;;3.03;;
75837;SDS011;64480;52.040;113.502;2023-05-18T11:03:00;7.07;;;1.80;;
75837;SDS011;64480;52.040;113.502;2023-05-18T11:06:08;7.47;;;2.20;;
75837;SDS011;64480;52.040;113.502;2023-05-18T11:09:23;5.70;;;1.90;;
75837;SDS011;64480;52.040;113.502;2023-05-18T11:12:28;5.32;;;1.95;;
75837;SDS011;64480;52.040;113.502;2023-05-18T11:19:04;6.95;;;2.15;;
75837;SDS011;64480;52.040;113.502;2023-05-18T11:22:12;5.63;;;2.10;;
75837;SDS011;64480;52.040;113.502;2023-05-18T11:28:41;5.68;;;2.70;;
75837;SDS011;64480;52.040;113.502;2023-05-18T11:31:46;9.23;;;2.40;;
75837;SDS011;64480;52.040;113.502;2023-05-18T11:34:51;5.82;;;2.83;;
75837;SDS011;64480;52.040;113.502;2023-05-18T11:38:04;4.50;;;2.03;;
75837;SDS011;64480;52.040;113.502;2023-05-18T11:41:33;9.25;;;2.45;;
75837;SDS011;64480;52.040;113.502;2023-05-18T11:44:36;10.45;;;2.25;;
75837;SDS011;64480;52.040;113.502;2023-05-18T11:47:43;4.57;;;1.77;;
75837;SDS011;64480;52.040;113.502;2023-05-18T11:50:51;5.55;;;1.83;;
75837;SDS011;64480;52.040;113.502;2023-05-18T11:53:57;4.22;;;1.60;;
75837;SDS011;64480;52.040;113.502;2023-05-18T11:57:02;5.57;;;1.88;;
75837;SDS011;64480;52.040;113.502;2023-05-18T12:00:06;5.57;;;1.80;;
75837;SDS011;64480;52.040;113.502;2023-05-18T12:03:14;18.10;;;5.10;;
75837;SDS011;64480;52.040;113.502;2023-05-18T12:06:18;10.07;;;3.88;;
75837;SDS011;64480;52.040;113.502;2023-05-18T12:09:23;5.97;;;2.42;;
75837;SDS011;64480;52.040;113.502;2023-05-18T12:12:27;7.88;;;1.98;;
75837;SDS011;64480;52.040;113.502;2023-05-18T12:15:30;3.30;;;1.67;;
75837;SDS011;64480;52.040;113.502;2023-05-18T12:18:35;6.78;;;1.52;;
75837;SDS011;64480;52.040;113.502;2023-05-18T12:21:40;6.15;;;1.60;;
75837;SDS011;64480;52.040;113.502;2023-05-18T12:24:44;5.95;;;1.60;;
75837;SDS011;64480;52.040;113.502;2023-05-18T12:27:48;4.25;;;1.40;;
75837;SDS011;64480;52.040;113.502;2023-05-18T12:34:09;2.88;;;1.33;;
75837;SDS011;64480;52.040;113.502;2023-05-18T12:37:14;2.47;;;1.70;;
75837;SDS011;64480;52.040;113.502;2023-05-18T12:40:35;5.70;;;1.52;;
75837;SDS011;64480;52.040;113.502;2023-05-18T12:43:51;8.00;;;2.20;;
75837;SDS011;64480;52.040;113.502;2023-05-18T12:46:56;3.90;;;1.35;;
75837;SDS011;64480;52.040;113.502;2023-05-18T12:50:00;3.25;;;1.67;;
75837;SDS011;64480;52.040;113.502;2023-05-18T12:53:05;4.70;;;1.90;;
75837;SDS011;64480;52.040;113.502;2023-05-18T12:56:08;3.40;;;1.65;;
75837;SDS011;64480;52.040;113.502;2023-05-18T12:59:16;4.25;;;1.90;;
75837;SDS011;64480;52.040;113.502;2023-05-18T13:02:34;5.05;;;2.05;;
75837;SDS011;64480;52.040;113.502;2023-05-18T13:05:39;4.53;;;1.40;;
75837;SDS011;64480;52.040;113.502;2023-05-18T13:08:45;5.25;;;1.77;;
75837;SDS011;64480;52.040;113.502;2023-05-18T13:11:52;5.80;;;2.05;;
75837;SDS011;64480;52.040;113.502;2023-05-18T13:18:13;5.53;;;1.85;;
75837;SDS011;64480;52.040;113.502;2023-05-18T13:21:17;3.88;;;1.60;;
75837;SDS011;64480;52.040;113.502;2023-05-18T13:24:20;4.70;;;1.42;;
75837;SDS011;64480;52.040;113.502;2023-05-18T13:27:24;7.53;;;1.70;;
75837;SDS011;64480;52.040;113.502;2023-05-18T13:30:30;5.53;;;1.52;;
75837;SDS011;64480;52.040;113.502;2023-05-18T13:33:34;4.30;;;2.03;;
75837;SDS011;64480;52.040;113.502;2023-05-18T13:36:38;7.15;;;2.05;;
75837;SDS011;64480;52.040;113.502;2023-05-18T13:39:41;3.67;;;1.35;;
75837;SDS011;64480;52.040;113.502;2023-05-18T13:42:45;7.40;;;1.73;;
75837;SDS011;64480;52.040;113.502;2023-05-18T13:45:49;3.53;;;1.67;;
75837;SDS011;64480;52.040;113.502;2023-05-18T13:48:52;5.07;;;1.60;;
75837;SDS011;64480;52.040;113.502;2023-05-18T13:51:56;4.53;;;1.50;;
75837;SDS011;64480;52.040;113.502;2023-05-18T13:55:02;6.60;;;1.60;;
75837;SDS011;64480;52.040;113.502;2023-05-18T13:58:06;4.88;;;1.88;;
75837;SDS011;64480;52.040;113.502;2023-05-18T14:01:10;6.63;;;1.75;;
75837;SDS011;64480;52.040;113.502;2023-05-18T14:04:14;5.63;;;1.40;;
75837;SDS011;64480;52.040;113.502;2023-05-18T14:07:18;2.75;;;1.40;;
75837;SDS011;64480;52.040;113.502;2023-05-18T14:10:21;6.60;;;1.40;;
75837;SDS011;64480;52.040;113.502;2023-05-18T14:13:25;3.13;;;1.70;;
75837;SDS011;64480;52.040;113.502;2023-05-18T14:16:28;4.15;;;1.67;;
75837;SDS011;64480;52.040;113.502;2023-05-18T14:19:32;3.25;;;1.60;;
75837;SDS011;64480;52.040;113.502;2023-05-18T14:22:35;2.63;;;1.50;;
75837;SDS011;64480;52.040;113.502;2023-05-18T14:25:39;4.25;;;1.95;;
75837;SDS011;64480;52.040;113.502;2023-05-18T14:28:45;2.47;;;1.20;;
75837;SDS011;64480;52.040;113.502;2023-05-18T14:31:48;3.55;;;1.30;;
75837;SDS011;64480;52.040;113.502;2023-05-18T14:34:52;3.45;;;1.70;;
75837;SDS011;64480;52.040;113.502;2023-05-18T14:37:59;3.53;;;2.03;;
75837;SDS011;64480;52.040;113.502;2023-05-18T14:41:04;16.38;;;2.33;;
75837;SDS011;64480;52.040;113.502;2023-05-18T14:44:08;5.05;;;1.90;;
75837;SDS011;64480;52.040;113.502;2023-05-18T14:47:11;2.42;;;1.40;;
75837;SDS011;64480;52.040;113.502;2023-05-18T14:50:15;3.40;;;1.27;;
75837;SDS011;64480;52.040;113.502;2023-05-18T14:53:22;4.68;;;1.80;;
75837;SDS011;64480;52.040;113.502;2023-05-18T14:59:32;2.35;;;1.67;;
75837;SDS011;64480;52.040;113.502;2023-05-18T15:02:36;4.30;;;1.67;;
75837;SDS011;64480;52.040;113.502;2023-05-18T15:05:39;2.35;;;1.52;;
75837;SDS011;64480;52.040;113.502;2023-05-18T15:08:43;3.45;;;2.17;;
75837;SDS011;64480;52.040;113.502;2023-05-18T15:11:47;3.30;;;1.35;;
75837;SDS011;64480;52.040;113.502;2023-05-18T15:14:50;3.00;;;1.42;;
75837;SDS011;64480;52.040;113.502;2023-05-18T15:17:54;7.35;;;2.00;;
75837;SDS011;64480;52.040;113.502;2023-05-18T15:20:59;2.80;;;1.33;;
75837;SDS011;64480;52.040;113.502;2023-05-18T15:24:02;4.00;;;1.38;;
75837;SDS011;64480;52.040;113.502;2023-05-18T15:27:06;3.95;;;1.23;;
75837;SDS011;64480;52.040;113.502;2023-05-18T15:30:10;3.33;;;1.48;;
75837;SDS011;64480;52.040;113.502;2023-05-18T15:33:14;3.97;;;1.10;;
75837;SDS011;64480;52.040;113.502;2023-05-18T15:36:17;5.25;;;1.50;;
75837;SDS011;64480;52.040;113.502;2023-05-18T15:39:23;3.72;;;1.65;;
75837;SDS011;64480;52.040;113.502;2023-05-18T15:42:26;4.63;;;1.40;;
75837;SDS011;64480;52.040;113.502;2023-05-18T15:45:30;6.38;;;1.58;;
75837;SDS011;64480;52.040;113.502;2023-05-18T15:48:33;4.43;;;1.40;;
75837;SDS011;64480;52.040;113.502;2023-05-18T15:51:37;7.65;;;1.60;;
75837;SDS011;64480;52.040;113.502;2023-05-18T15:54:40;4.90;;;1.42;;
75837;SDS011;64480;52.040;113.502;2023-05-18T15:57:44;4.72;;;1.40;;
75837;SDS011;64480;52.040;113.502;2023-05-18T16:00:48;5.10;;;1.60;;
75837;SDS011;64480;52.040;113.502;2023-05-18T16:03:51;4.50;;;1.60;;
75837;SDS011;64480;52.040;113.502;2023-05-18T16:06:55;2.10;;;1.27;;
75837;SDS011;64480;52.040;113.502;2023-05-18T16:09:58;2.45;;;1.48;;
75837;SDS011;64480;52.040;113.502;2023-05-18T16:13:02;3.17;;;1.50;;
75837;SDS011;64480;52.040;113.502;2023-05-18T16:16:07;3.22;;;1.40;;
75837;SDS011;64480;52.040;113.502;2023-05-18T16:19:12;5.75;;;3.40;;
75837;SDS011;64480;52.040;113.502;2023-05-18T16:22:15;4.22;;;1.40;;
75837;SDS011;64480;52.040;113.502;2023-05-18T16:25:19;6.85;;;1.23;;
75837;SDS011;64480;52.040;113.502;2023-05-18T16:28:22;2.80;;;1.23;;
75837;SDS011;64480;52.040;113.502;2023-05-18T16:31:26;3.45;;;1.23;;
75837;SDS011;64480;52.040;113.502;2023-05-18T16:34:29;2.28;;;1.10;;
75837;SDS011;64480;52.040;113.502;2023-05-18T16:37:33;2.30;;;1.40;;
75837;SDS011;64480;52.040;113.502;2023-05-18T16:40:38;2.25;;;1.20;;
75837;SDS011;64480;52.040;113.502;2023-05-18T16:43:42;2.78;;;1.15;;
75837;SDS011;64480;52.040;113.502;2023-05-18T16:46:45;3.15;;;1.52;;
75837;SDS011;64480;52.040;113.502;2023-05-18T16:49:49;6.75;;;2.22;;
75837;SDS011;64480;52.040;113.502;2023-05-18T16:52:52;7.60;;;2.20;;
75837;SDS011;64480;52.040;113.502;2023-05-18T16:55:56;3.20;;;1.70;;
75837;SDS011;64480;52.040;113.502;2023-05-18T16:58:59;4.28;;;2.20;;
75837;SDS011;64480;52.040;113.502;2023-05-18T17:02:05;4.35;;;2.03;;
75837;SDS011;64480;52.040;113.502;2023-05-18T17:05:10;5.35;;;1.80;;
75837;SDS011;64480;52.040;113.502;2023-05-18T17:08:14;8.32;;;4.80;;
75837;SDS011;64480;52.040;113.502;2023-05-18T17:11:18;4.82;;;2.10;;
75837;SDS011;64480;52.040;113.502;2023-05-18T17:14:21;5.03;;;1.95;;
75837;SDS011;64480;52.040;113.502;2023-05-18T17:17:24;3.67;;;1.90;;
75837;SDS011;64480;52.040;113.502;2023-05-18T17:20:28;5.70;;;2.15;;
75837;SDS011;64480;52.040;113.502;2023-05-18T17:23:32;4.72;;;2.28;;
75837;SDS011;64480;52.040;113.502;2023-05-18T17:26:35;4.90;;;1.95;;
75837;SDS011;64480;52.040;113.502;2023-05-18T17:29:39;3.78;;;2.15;;
75837;SDS011;64480;52.040;113.502;2023-05-18T17:32:42;4.57;;;1.90;;
75837;SDS011;64480;52.040;113.502;2023-05-18T17:35:47;4.20;;;2.33;;
75837;SDS011;64480;52.040;113.502;2023-05-18T17:38:50;5.70;;;1.90;;
75837;SDS011;64480;52.040;113.502;2023-05-18T17:41:58;7.85;;;2.45;;
75837;SDS011;64480;52.040;113.502;2023-05-18T17:45:02;6.13;;;2.50;;
75837;SDS011;64480;52.040;113.502;2023-05-18T17:48:13;4.70;;;2.22;;
75837;SDS011;64480;52.040;113.502;2023-05-18T17:54:46;10.77;;;2.55;;
75837;SDS011;64480;52.040;113.502;2023-05-18T17:57:53;4.38;;;2.22;;
75837;SDS011;64480;52.040;113.502;2023-05-18T18:01:00;3.72;;;1.98;;
75837;SDS011;64480;52.040;113.502;2023-05-18T18:08:01;2.72;;;1.65;;
75837;SDS011;64480;52.040;113.502;2023-05-18T18:14:17;3.63;;;2.08;;
75837;SDS011;64480;52.040;113.502;2023-05-18T18:17:23;4.20;;;2.20;;
75837;SDS011;64480;52.040;113.502;2023-05-18T18:20:27;4.22;;;1.98;;
75837;SDS011;64480;52.040;113.502;2023-05-18T18:27:41;4.97;;;1.90;;
75837;SDS011;64480;52.040;113.502;2023-05-18T18:30:48;3.08;;;2.10;;
75837;SDS011;64480;52.040;113.502;2023-05-18T18:41:08;5.50;;;2.15;;
75837;SDS011;64480;52.040;113.502;2023-05-18T18:47:45;5.53;;;2.20;;
75837;SDS011;64480;52.040;113.502;2023-05-18T18:50:53;3.72;;;1.38;;
75837;SDS011;64480;52.040;113.502;2023-05-18T18:54:01;3.00;;;1.30;;
75837;SDS011;64480;52.040;113.502;2023-05-18T18:57:05;3.85;;;1.20;;
75837;SDS011;64480;52.040;113.502;2023-05-18T19:00:14;5.18;;;1.20;;
75837;SDS011;64480;52.040;113.502;2023-05-18T19:14:00;5.60;;;2.60;;
75837;SDS011;64480;52.040;113.502;2023-05-18T19:20:32;7.22;;;2.20;;
75837;SDS011;64480;52.040;113.502;2023-05-18T19:23:41;5.20;;;1.80;;
75837;SDS011;64480;52.040;113.502;2023-05-18T19:26:47;3.35;;;1.38;;
75837;SDS011;64480;52.040;113.502;2023-05-18T19:29:50;3.50;;;1.20;;